Terminal Aerodrome Forecast
Issued by NWS Boston, MA

Home | Current Version | Previous Version | Text Only | Print | Product List | Glossary On
Versions: 1 2 3 4 5 6 7 8 9 10 11 12 13 14 15 16 17 18 19 20 21 22 23 24 25 26 27
000
FTUS41 KBOX 232324
TAFORH
TAF
KORH 232324Z 2400/2424 15006KT P6SM BKN025
     FM240400 16008KT P6SM BKN015
     FM240600 17009KT P6SM BKN015 WS020/18035KT
     FM240900 16009KT 4SM BR VCSH OVC015 WS020/18035KT
     FM241200 17014G25KT P6SM -SHRA OVC015
     FM241800 17016G28KT 3SM -RA BR OVC020=

USA.gov is the U.S. government's official web portal to all federal, state and local government web resources and services.